sensor_id;sensor_type;location;lat;lon;timestamp;pressure;altitude;pressure_sealevel;temperature;humidity
63204;BME280;49297;43.210;27.914;2023-03-31T00:00:43;101364.72;;;4.91;56.19
63204;BME280;49297;43.210;27.914;2023-03-31T00:03:09;101365.75;;;4.89;56.44
63204;BME280;49297;43.210;27.914;2023-03-31T00:05:36;101360.56;;;4.87;56.36
63204;BME280;49297;43.210;27.914;2023-03-31T00:08:01;101353.81;;;4.83;56.49
63204;BME280;49297;43.210;27.914;2023-03-31T00:10:31;101343.56;;;4.79;57.18
63204;BME280;49297;43.210;27.914;2023-03-31T00:12:59;101354.91;;;4.79;57.38
63204;BME280;49297;43.210;27.914;2023-03-31T00:15:26;101349.84;;;4.76;57.42
63204;BME280;49297;43.210;27.914;2023-03-31T00:17:52;101353.38;;;4.75;57.39
63204;BME280;49297;43.210;27.914;2023-03-31T00:20:18;101340.25;;;4.75;57.87
63204;BME280;49297;43.210;27.914;2023-03-31T00:22:44;101338.56;;;4.74;58.04
63204;BME280;49297;43.210;27.914;2023-03-31T00:25:13;101336.03;;;4.72;57.81
63204;BME280;49297;43.210;27.914;2023-03-31T00:27:43;101325.72;;;4.69;58.36
63204;BME280;49297;43.210;27.914;2023-03-31T00:30:10;101333.66;;;4.68;58.18
63204;BME280;49297;43.210;27.914;2023-03-31T00:32:36;101332.81;;;4.67;58.36
63204;BME280;49297;43.210;27.914;2023-03-31T00:35:02;101320.72;;;4.65;58.65
63204;BME280;49297;43.210;27.914;2023-03-31T00:37:30;101316.41;;;4.64;58.31
63204;BME280;49297;43.210;27.914;2023-03-31T00:39:58;101319.94;;;4.63;58.58
63204;BME280;49297;43.210;27.914;2023-03-31T00:42:25;101311.25;;;4.62;58.35
63204;BME280;49297;43.210;27.914;2023-03-31T00:47:35;101310.22;;;4.65;58.34
63204;BME280;49297;43.210;27.914;2023-03-31T00:50:02;101310.22;;;4.65;58.34
63204;BME280;49297;43.210;27.914;2023-03-31T00:52:32;101304.13;;;4.64;58.68
63204;BME280;49297;43.210;27.914;2023-03-31T00:55:11;101302.63;;;4.60;58.25
63204;BME280;49297;43.210;27.914;2023-03-31T00:57:39;101297.47;;;4.58;58.39
63204;BME280;49297;43.210;27.914;2023-03-31T01:00:10;101299.22;;;4.58;58.61
63204;BME280;49297;43.210;27.914;2023-03-31T01:02:48;101295.75;;;4.57;58.62
63204;BME280;49297;43.210;27.914;2023-03-31T01:05:25;101299.31;;;4.56;58.80
63204;BME280;49297;43.210;27.914;2023-03-31T01:07:53;101281.88;;;4.55;58.78
63204;BME280;49297;43.210;27.914;2023-03-31T01:10:21;101280.16;;;4.54;59.35
63204;BME280;49297;43.210;27.914;2023-03-31T01:12:53;101282.03;;;4.52;59.13
63204;BME280;49297;43.210;27.914;2023-03-31T01:15:20;101274.38;;;4.49;59.26
63204;BME280;49297;43.210;27.914;2023-03-31T01:17:46;101273.00;;;4.42;59.65
63204;BME280;49297;43.210;27.914;2023-03-31T01:20:28;101272.22;;;4.40;60.19
63204;BME280;49297;43.210;27.914;2023-03-31T01:31:03;101252.59;;;4.31;60.48
63204;BME280;49297;43.210;27.914;2023-03-31T01:33:46;101256.31;;;4.27;60.21
63204;BME280;49297;43.210;27.914;2023-03-31T01:39:11;101248.22;;;4.16;61.14
63204;BME280;49297;43.210;27.914;2023-03-31T01:46:45;101242.97;;;4.16;60.90
63204;BME280;49297;43.210;27.914;2023-03-31T01:49:26;101237.66;;;4.17;61.20
63204;BME280;49297;43.210;27.914;2023-03-31T01:57:04;101227.66;;;4.08;60.72
63204;BME280;49297;43.210;27.914;2023-03-31T01:59:37;101227.75;;;4.07;60.63
63204;BME280;49297;43.210;27.914;2023-03-31T02:02:26;101227.81;;;4.05;61.07
63204;BME280;49297;43.210;27.914;2023-03-31T02:05:12;101215.63;;;4.04;60.93
63204;BME280;49297;43.210;27.914;2023-03-31T02:07:42;101205.31;;;4.01;60.87
63204;BME280;49297;43.210;27.914;2023-03-31T02:10:11;101207.19;;;3.99;61.08
63204;BME280;49297;43.210;27.914;2023-03-31T02:12:40;101206.25;;;4.00;60.52
63204;BME280;49297;43.210;27.914;2023-03-31T02:15:12;101202.69;;;4.01;60.97
63204;BME280;49297;43.210;27.914;2023-03-31T02:17:39;101198.41;;;4.00;60.64
63204;BME280;49297;43.210;27.914;2023-03-31T02:20:11;101195.84;;;3.98;60.98
63204;BME280;49297;43.210;27.914;2023-03-31T02:22:44;101192.31;;;3.99;60.37
63204;BME280;49297;43.210;27.914;2023-03-31T02:25:14;101187.91;;;4.00;60.87
63204;BME280;49297;43.210;27.914;2023-03-31T02:27:42;101183.50;;;4.00;60.68
63204;BME280;49297;43.210;27.914;2023-03-31T02:30:09;101184.28;;;4.03;60.58
63204;BME280;49297;43.210;27.914;2023-03-31T02:32:38;101186.06;;;4.02;60.25
63204;BME280;49297;43.210;27.914;2023-03-31T02:35:05;101178.13;;;4.04;60.03
63204;BME280;49297;43.210;27.914;2023-03-31T02:37:32;101176.34;;;4.04;59.67
63204;BME280;49297;43.210;27.914;2023-03-31T02:40:02;101176.25;;;4.06;59.31
63204;BME280;49297;43.210;27.914;2023-03-31T02:42:30;101151.84;;;4.05;59.31
63204;BME280;49297;43.210;27.914;2023-03-31T02:45:02;101159.53;;;4.08;58.60
63204;BME280;49297;43.210;27.914;2023-03-31T02:47:29;101160.38;;;4.09;58.56
63204;BME280;49297;43.210;27.914;2023-03-31T02:49:58;101156.81;;;4.10;58.59
63204;BME280;49297;43.210;27.914;2023-03-31T02:55:09;101160.09;;;4.13;57.65
63204;BME280;49297;43.210;27.914;2023-03-31T03:00:37;101144.38;;;4.13;57.83
63204;BME280;49297;43.210;27.914;2023-03-31T03:03:14;101144.38;;;4.13;57.90
63204;BME280;49297;43.210;27.914;2023-03-31T03:08:23;101143.53;;;4.13;57.66
63204;BME280;49297;43.210;27.914;2023-03-31T03:16:39;101140.91;;;4.13;56.83
63204;BME280;49297;43.210;27.914;2023-03-31T03:18:44;101131.25;;;4.13;57.27
63204;BME280;49297;43.210;27.914;2023-03-31T03:21:10;101134.75;;;4.14;56.46
63204;BME280;49297;43.210;27.914;2023-03-31T03:23:36;101125.09;;;4.14;56.75
63204;BME280;49297;43.210;27.914;2023-03-31T03:26:02;101119.88;;;4.14;56.24
63204;BME280;49297;43.210;27.914;2023-03-31T03:28:28;101115.53;;;4.13;56.17
63204;BME280;49297;43.210;27.914;2023-03-31T03:30:54;101125.09;;;4.14;56.73
63204;BME280;49297;43.210;27.914;2023-03-31T03:33:20;101118.16;;;4.13;56.67
63204;BME280;49297;43.210;27.914;2023-03-31T03:35:49;101118.16;;;4.13;56.76
63204;BME280;49297;43.210;27.914;2023-03-31T03:38:15;101117.31;;;4.13;57.82
63204;BME280;49297;43.210;27.914;2023-03-31T03:40:41;101117.50;;;4.10;57.92
63204;BME280;49297;43.210;27.914;2023-03-31T03:43:06;101126.31;;;4.09;57.47
63204;BME280;49297;43.210;27.914;2023-03-31T03:45:32;101116.66;;;4.09;58.10
63204;BME280;49297;43.210;27.914;2023-03-31T03:47:58;101122.84;;;4.08;58.69
63204;BME280;49297;43.210;27.914;2023-03-31T03:50:25;101121.06;;;4.09;58.72
63204;BME280;49297;43.210;27.914;2023-03-31T03:52:53;101118.44;;;4.09;58.71
63204;BME280;49297;43.210;27.914;2023-03-31T03:55:19;101114.88;;;4.10;58.18
63204;BME280;49297;43.210;27.914;2023-03-31T03:57:46;101113.13;;;4.10;59.03
63204;BME280;49297;43.210;27.914;2023-03-31T04:00:14;101116.56;;;4.11;58.98
63204;BME280;49297;43.210;27.914;2023-03-31T04:02:40;101107.88;;;4.10;58.39
63204;BME280;49297;43.210;27.914;2023-03-31T04:05:07;101110.50;;;4.10;58.89
63204;BME280;49297;43.210;27.914;2023-03-31T04:07:34;101107.13;;;4.08;59.35
63204;BME280;49297;43.210;27.914;2023-03-31T04:10:00;101103.72;;;4.06;59.51
63204;BME280;49297;43.210;27.914;2023-03-31T04:12:26;101094.94;;;4.07;59.53
63204;BME280;49297;43.210;27.914;2023-03-31T04:14:52;101094.94;;;4.07;60.03
63204;BME280;49297;43.210;27.914;2023-03-31T04:17:19;101098.38;;;4.08;60.11
63204;BME280;49297;43.210;27.914;2023-03-31T04:19:52;101093.91;;;4.10;60.55
63204;BME280;49297;43.210;27.914;2023-03-31T04:22:18;101093.81;;;4.11;59.88
63204;BME280;49297;43.210;27.914;2023-03-31T04:24:46;101092.81;;;4.14;59.95
63204;BME280;49297;43.210;27.914;2023-03-31T04:27:17;101090.88;;;4.17;60.04
63204;BME280;49297;43.210;27.914;2023-03-31T04:29:42;101093.50;;;4.17;60.01
63204;BME280;49297;43.210;27.914;2023-03-31T04:32:19;101090.44;;;4.25;60.48
63204;BME280;49297;43.210;27.914;2023-03-31T04:34:46;101082.03;;;4.34;60.15
63204;BME280;49297;43.210;27.914;2023-03-31T04:37:13;101072.97;;;4.40;59.96
63204;BME280;49297;43.210;27.914;2023-03-31T04:39:47;101078.63;;;4.48;60.11
63204;BME280;49297;43.210;27.914;2023-03-31T04:42:15;101078.16;;;4.56;60.04
63204;BME280;49297;43.210;27.914;2023-03-31T04:44:42;101070.88;;;4.61;60.34
63204;BME280;49297;43.210;27.914;2023-03-31T04:47:08;101075.56;;;4.70;59.75
63204;BME280;49297;43.210;27.914;2023-03-31T04:49:36;101074.38;;;4.76;60.23
63204;BME280;49297;43.210;27.914;2023-03-31T04:52:02;101080.28;;;4.80;60.35
63204;BME280;49297;43.210;27.914;2023-03-31T04:54:28;101078.31;;;4.83;60.38
63204;BME280;49297;43.210;27.914;2023-03-31T04:56:55;101071.19;;;4.85;60.08
63204;BME280;49297;43.210;27.914;2023-03-31T04:59:21;101071.09;;;4.87;60.16
63204;BME280;49297;43.210;27.914;2023-03-31T05:01:47;101068.28;;;4.90;59.82
63204;BME280;49297;43.210;27.914;2023-03-31T05:04:14;101062.69;;;4.96;59.86
63204;BME280;49297;43.210;27.914;2023-03-31T05:06:40;101056.28;;;5.00;59.34
63204;BME280;49297;43.210;27.914;2023-03-31T05:09:12;101056.88;;;5.05;59.37
63204;BME280;49297;43.210;27.914;2023-03-31T05:11:37;101047.94;;;5.08;58.59
63204;BME280;49297;43.210;27.914;2023-03-31T05:14:04;101045.97;;;5.11;58.38
63204;BME280;49297;43.210;27.914;2023-03-31T05:16:30;101047.50;;;5.15;58.21
63204;BME280;49297;43.210;27.914;2023-03-31T05:18:55;101042.81;;;5.21;57.83
63204;BME280;49297;43.210;27.914;2023-03-31T05:21:21;101031.91;;;5.27;57.78
63204;BME280;49297;43.210;27.914;2023-03-31T05:23:48;101027.13;;;5.33;57.73
63204;BME280;49297;43.210;27.914;2023-03-31T05:26:16;101022.34;;;5.40;57.52
63204;BME280;49297;43.210;27.914;2023-03-31T05:28:42;101029.81;;;5.46;56.82
63204;BME280;49297;43.210;27.914;2023-03-31T05:31:08;101027.66;;;5.53;57.23
63204;BME280;49297;43.210;27.914;2023-03-31T05:33:37;101025.59;;;5.58;57.02
63204;BME280;49297;43.210;27.914;2023-03-31T05:36:08;101024.25;;;5.65;56.73
63204;BME280;49297;43.210;27.914;2023-03-31T05:38:36;101013.25;;;5.73;57.01
63204;BME280;49297;43.210;27.914;2023-03-31T05:41:03;101010.09;;;5.81;56.45
63204;BME280;49297;43.210;27.914;2023-03-31T05:43:29;101012.16;;;5.90;56.14
63204;BME280;49297;43.210;27.914;2023-03-31T05:45:55;101000.22;;;5.99;56.40
63204;BME280;49297;43.210;27.914;2023-03-31T05:48:21;101008.44;;;6.07;56.29
63204;BME280;49297;43.210;27.914;2023-03-31T05:50:47;101014.97;;;6.14;55.92
63204;BME280;49297;43.210;27.914;2023-03-31T05:53:14;101017.22;;;6.20;55.84
63204;BME280;49297;43.210;27.914;2023-03-31T05:55:40;101014.81;;;6.30;55.34
63204;BME280;49297;43.210;27.914;2023-03-31T05:58:06;101012.63;;;6.37;55.31
63204;BME280;49297;43.210;27.914;2023-03-31T06:00:33;101018.09;;;6.46;55.53
63204;BME280;49297;43.210;27.914;2023-03-31T06:03:00;101019.34;;;6.54;55.01
63204;BME280;49297;43.210;27.914;2023-03-31T06:05:27;101004.94;;;6.59;54.54
63204;BME280;49297;43.210;27.914;2023-03-31T06:07:55;101010.53;;;6.67;54.47
63204;BME280;49297;43.210;27.914;2023-03-31T06:10:21;100999.69;;;6.72;54.18
63204;BME280;49297;43.210;27.914;2023-03-31T06:12:49;101008.31;;;6.74;54.15
63204;BME280;49297;43.210;27.914;2023-03-31T06:15:15;101005.88;;;6.84;54.10
63204;BME280;49297;43.210;27.914;2023-03-31T06:17:44;101002.75;;;6.92;54.24
63204;BME280;49297;43.210;27.914;2023-03-31T06:20:10;101006.50;;;7.00;53.48
63204;BME280;49297;43.210;27.914;2023-03-31T06:22:38;100999.13;;;7.05;53.22
63204;BME280;49297;43.210;27.914;2023-03-31T06:25:05;101004.91;;;7.11;53.12
63204;BME280;49297;43.210;27.914;2023-03-31T06:27:31;100994.16;;;7.14;53.09
63204;BME280;49297;43.210;27.914;2023-03-31T06:29:57;100989.53;;;7.17;52.88
63204;BME280;49297;43.210;27.914;2023-03-31T06:32:23;100987.28;;;7.24;52.58
63204;BME280;49297;43.210;27.914;2023-03-31T06:34:50;100982.31;;;7.32;52.59
63204;BME280;49297;43.210;27.914;2023-03-31T06:37:18;100994.09;;;7.39;52.81
63204;BME280;49297;43.210;27.914;2023-03-31T06:39:45;100987.66;;;7.43;52.43
63204;BME280;49297;43.210;27.914;2023-03-31T06:42:11;100988.72;;;7.41;52.27
63204;BME280;49297;43.210;27.914;2023-03-31T06:44:36;100983.34;;;7.42;51.94
63204;BME280;49297;43.210;27.914;2023-03-31T06:47:02;100991.97;;;7.44;51.69
63204;BME280;49297;43.210;27.914;2023-03-31T06:49:28;100990.81;;;7.49;51.25
63204;BME280;49297;43.210;27.914;2023-03-31T06:51:54;100982.91;;;7.49;51.99
63204;BME280;49297;43.210;27.914;2023-03-31T06:54:20;100985.19;;;7.53;51.17
63204;BME280;49297;43.210;27.914;2023-03-31T06:56:46;100982.97;;;7.60;51.48
63204;BME280;49297;43.210;27.914;2023-03-31T06:59:12;100984.09;;;7.69;51.92
63204;BME280;49297;43.210;27.914;2023-03-31T07:01:38;100994.88;;;7.77;52.03
63204;BME280;49297;43.210;27.914;2023-03-31T07:04:06;100989.28;;;7.81;51.88
63204;BME280;49297;43.210;27.914;2023-03-31T07:06:33;100984.63;;;7.85;51.86
63204;BME280;49297;43.210;27.914;2023-03-31T07:09:01;100990.53;;;7.89;52.10
63204;BME280;49297;43.210;27.914;2023-03-31T07:11:28;100988.22;;;7.84;52.16
63204;BME280;49297;43.210;27.914;2023-03-31T07:13:55;100979.06;;;7.77;52.68
63204;BME280;49297;43.210;27.914;2023-03-31T07:16:21;100978.97;;;7.78;52.81
63204;BME280;49297;43.210;27.914;2023-03-31T07:18:47;100983.50;;;7.76;52.89
63204;BME280;49297;43.210;27.914;2023-03-31T07:21:15;100978.34;;;7.75;52.87
63204;BME280;49297;43.210;27.914;2023-03-31T07:23:41;100979.06;;;7.77;53.09
63204;BME280;49297;43.210;27.914;2023-03-31T07:26:07;100970.94;;;7.80;53.17
63204;BME280;49297;43.210;27.914;2023-03-31T07:28:34;100967.25;;;7.82;53.13
63204;BME280;49297;43.210;27.914;2023-03-31T07:31:01;100961.84;;;7.84;53.59
63204;BME280;49297;43.210;27.914;2023-03-31T07:33:26;100969.75;;;7.84;53.44
63204;BME280;49297;43.210;27.914;2023-03-31T07:35:52;100958.28;;;7.85;53.43
63204;BME280;49297;43.210;27.914;2023-03-31T07:38:19;100964.16;;;7.89;53.42
63204;BME280;49297;43.210;27.914;2023-03-31T07:40:46;100969.31;;;7.90;53.89
63204;BME280;49297;43.210;27.914;2023-03-31T07:43:15;100971.59;;;7.95;53.84
63204;BME280;49297;43.210;27.914;2023-03-31T07:45:42;100975.94;;;7.96;53.55
63204;BME280;49297;43.210;27.914;2023-03-31T07:48:08;100977.47;;;7.98;53.65
63204;BME280;49297;43.210;27.914;2023-03-31T07:50:34;100977.97;;;8.04;53.67
63204;BME280;49297;43.210;27.914;2023-03-31T07:53:01;100973.94;;;8.11;53.13
63204;BME280;49297;43.210;27.914;2023-03-31T07:55:26;100967.97;;;8.20;52.65
63204;BME280;49297;43.210;27.914;2023-03-31T07:57:53;100968.00;;;8.31;52.13
63204;BME280;49297;43.210;27.914;2023-03-31T08:00:20;100973.78;;;8.36;52.67
63204;BME280;49297;43.210;27.914;2023-03-31T08:02:46;100967.09;;;8.44;51.51
63204;BME280;49297;43.210;27.914;2023-03-31T08:05:14;100957.16;;;8.47;52.00
63204;BME280;49297;43.210;27.914;2023-03-31T08:07:42;100963.84;;;8.51;51.60
63204;BME280;49297;43.210;27.914;2023-03-31T08:10:10;100961.22;;;8.51;49.96
63204;BME280;49297;43.210;27.914;2023-03-31T08:12:37;100952.59;;;8.49;50.00
63204;BME280;49297;43.210;27.914;2023-03-31T08:15:03;100962.44;;;8.47;49.65
63204;BME280;49297;43.210;27.914;2023-03-31T08:17:29;100949.47;;;8.44;49.39
63204;BME280;49297;43.210;27.914;2023-03-31T08:19:57;100948.81;;;8.41;50.21
63204;BME280;49297;43.210;27.914;2023-03-31T08:22:24;100944.53;;;8.39;50.58
63204;BME280;49297;43.210;27.914;2023-03-31T08:24:50;100946.06;;;8.31;50.25
63204;BME280;49297;43.210;27.914;2023-03-31T08:27:16;100944.00;;;8.23;50.79
63204;BME280;49297;43.210;27.914;2023-03-31T08:29:43;100951.66;;;8.15;52.08
63204;BME280;49297;43.210;27.914;2023-03-31T08:32:08;100947.81;;;8.08;52.93
63204;BME280;49297;43.210;27.914;2023-03-31T08:34:40;100945.28;;;8.06;54.80
63204;BME280;49297;43.210;27.914;2023-03-31T08:37:07;100953.13;;;7.95;54.61
63204;BME280;49297;43.210;27.914;2023-03-31T08:39:34;100951.09;;;7.87;55.33
63204;BME280;49297;43.210;27.914;2023-03-31T08:44:35;100940.16;;;7.80;57.04
63204;BME280;49297;43.210;27.914;2023-03-31T08:47:06;100936.78;;;7.78;58.04
63204;BME280;49297;43.210;27.914;2023-03-31T08:49:39;100937.75;;;7.77;59.19
63204;BME280;49297;43.210;27.914;2023-03-31T08:52:08;100929.34;;;7.72;59.42
63204;BME280;49297;43.210;27.914;2023-03-31T08:54:38;100926.59;;;7.74;59.85
63204;BME280;49297;43.210;27.914;2023-03-31T08:57:09;100929.25;;;7.74;60.09
63204;BME280;49297;43.210;27.914;2023-03-31T08:59:37;100931.13;;;7.72;61.32
63204;BME280;49297;43.210;27.914;2023-03-31T09:10:00;100920.34;;;7.63;64.59
63204;BME280;49297;43.210;27.914;2023-03-31T09:12:45;100912.03;;;7.57;64.42
63204;BME280;49297;43.210;27.914;2023-03-31T09:15:25;100914.16;;;7.52;65.33
63204;BME280;49297;43.210;27.914;2023-03-31T09:17:52;100913.53;;;7.48;66.30
63204;BME280;49297;43.210;27.914;2023-03-31T09:20:29;100914.53;;;7.47;66.54
63204;BME280;49297;43.210;27.914;2023-03-31T09:23:03;100908.66;;;7.55;67.07
63204;BME280;49297;43.210;27.914;2023-03-31T09:25:34;100901.16;;;7.61;67.62
63204;BME280;49297;43.210;27.914;2023-03-31T09:28:19;100902.38;;;7.69;68.01
63204;BME280;49297;43.210;27.914;2023-03-31T09:30:51;100897.38;;;7.77;67.61
63204;BME280;49297;43.210;27.914;2023-03-31T09:33:23;100892.47;;;7.84;68.40
63204;BME280;49297;43.210;27.914;2023-03-31T09:35:52;100889.41;;;7.90;68.12
63204;BME280;49297;43.210;27.914;2023-03-31T09:38:19;100889.84;;;7.95;68.26
63204;BME280;49297;43.210;27.914;2023-03-31T09:40:46;100890.25;;;8.01;68.27
63204;BME280;49297;43.210;27.914;2023-03-31T09:43:22;100883.06;;;8.04;68.15
63204;BME280;49297;43.210;27.914;2023-03-31T09:45:52;100884.84;;;8.03;67.98
63204;BME280;49297;43.210;27.914;2023-03-31T09:48:29;100883.06;;;8.04;68.34
63204;BME280;49297;43.210;27.914;2023-03-31T09:50:58;100883.06;;;8.04;67.55
63204;BME280;49297;43.210;27.914;2023-03-31T09:53:28;100880.06;;;7.97;68.21
63204;BME280;49297;43.210;27.914;2023-03-31T09:56:01;100874.78;;;7.97;67.32
63204;BME280;49297;43.210;27.914;2023-03-31T09:58:27;100865.06;;;7.86;67.71
63204;BME280;49297;43.210;27.914;2023-03-31T10:00:59;100871.97;;;7.76;67.87
63204;BME280;49297;43.210;27.914;2023-03-31T10:03:27;100870.75;;;7.69;68.47
63204;BME280;49297;43.210;27.914;2023-03-31T10:05:55;100870.66;;;7.70;69.15
63204;BME280;49297;43.210;27.914;2023-03-31T10:08:28;100865.59;;;7.67;68.84
63204;BME280;49297;43.210;27.914;2023-03-31T10:10:57;100867.63;;;7.63;68.97
63204;BME280;49297;43.210;27.914;2023-03-31T10:13:51;100864.38;;;7.60;69.57
63204;BME280;49297;43.210;27.914;2023-03-31T10:19:11;100857.88;;;7.53;69.86
63204;BME280;49297;43.210;27.914;2023-03-31T10:21:38;100849.75;;;7.56;70.29
63204;BME280;49297;43.210;27.914;2023-03-31T10:24:08;100848.56;;;7.60;69.97
63204;BME280;49297;43.210;27.914;2023-03-31T10:26:35;100842.09;;;7.64;69.92
63204;BME280;49297;43.210;27.914;2023-03-31T10:29:01;100841.78;;;7.69;70.67
63204;BME280;49297;43.210;27.914;2023-03-31T10:31:33;100830.03;;;7.73;69.93
63204;BME280;49297;43.210;27.914;2023-03-31T10:34:03;100821.69;;;7.79;70.24
63204;BME280;49297;43.210;27.914;2023-03-31T10:36:31;100831.41;;;7.90;70.73
63204;BME280;49297;43.210;27.914;2023-03-31T10:38:57;100830.69;;;7.99;70.78
63204;BME280;49297;43.210;27.914;2023-03-31T10:41:26;100819.41;;;8.08;69.83
63204;BME280;49297;43.210;27.914;2023-03-31T10:43:53;100814.03;;;8.21;69.85
63204;BME280;49297;43.210;27.914;2023-03-31T10:46:19;100803.94;;;8.37;70.14
63204;BME280;49297;43.210;27.914;2023-03-31T10:48:46;100784.41;;;8.51;69.90
63204;BME280;49297;43.210;27.914;2023-03-31T10:53:39;100800.09;;;8.75;69.73
63204;BME280;49297;43.210;27.914;2023-03-31T10:58:51;100780.94;;;8.94;69.23
63204;BME280;49297;43.210;27.914;2023-03-31T11:09:04;100771.53;;;9.76;68.30
63204;BME280;49297;43.210;27.914;2023-03-31T11:11:45;100761.84;;;9.86;67.74
63204;BME280;49297;43.210;27.914;2023-03-31T11:14:34;100761.16;;;9.94;67.68
63204;BME280;49297;43.210;27.914;2023-03-31T11:27:03;100745.38;;;10.54;66.62
63204;BME280;49297;43.210;27.914;2023-03-31T11:29:42;100736.22;;;10.68;66.07
63204;BME280;49297;43.210;27.914;2023-03-31T11:34:55;100733.59;;;10.88;65.66
63204;BME280;49297;43.210;27.914;2023-03-31T11:37:29;100733.84;;;10.84;65.42
63204;BME280;49297;43.210;27.914;2023-03-31T11:42:45;100734.66;;;10.65;65.77
63204;BME280;49297;43.210;27.914;2023-03-31T11:45:14;100735.63;;;10.55;65.47
63204;BME280;49297;43.210;27.914;2023-03-31T11:47:41;100733.09;;;10.53;66.28
63204;BME280;49297;43.210;27.914;2023-03-31T11:50:20;100733.41;;;10.50;66.35
63204;BME280;49297;43.210;27.914;2023-03-31T11:53:01;100725.59;;;10.48;66.94
63204;BME280;49297;43.210;27.914;2023-03-31T11:55:28;100723.66;;;10.51;67.05
63204;BME280;49297;43.210;27.914;2023-03-31T12:00:33;100709.88;;;10.66;66.96
63204;BME280;49297;43.210;27.914;2023-03-31T12:03:15;100704.84;;;10.83;66.47
63204;BME280;49297;43.210;27.914;2023-03-31T12:06:18;100696.19;;;11.10;66.31
63204;BME280;49297;43.210;27.914;2023-03-31T12:11:28;100683.59;;;11.79;64.95
63204;BME280;49297;43.210;27.914;2023-03-31T12:16:37;100676.94;;;12.03;64.23
63204;BME280;49297;43.210;27.914;2023-03-31T12:21:31;100668.00;;;12.04;64.18
63204;BME280;49297;43.210;27.914;2023-03-31T12:24:01;100672.69;;;12.37;63.97
63204;BME280;49297;43.210;27.914;2023-03-31T12:26:35;100670.03;;;12.91;63.16
63204;BME280;49297;43.210;27.914;2023-03-31T12:29:06;100670.88;;;13.18;62.15
63204;BME280;49297;43.210;27.914;2023-03-31T12:31:37;100672.78;;;13.08;62.24
63204;BME280;49297;43.210;27.914;2023-03-31T12:34:07;100670.47;;;12.87;62.65
63204;BME280;49297;43.210;27.914;2023-03-31T12:41:44;100651.59;;;12.36;63.44
63204;BME280;49297;43.210;27.914;2023-03-31T12:57:21;100632.06;;;11.81;64.46
63204;BME280;49297;43.210;27.914;2023-03-31T13:02:33;100628.69;;;11.89;64.81
63204;BME280;49297;43.210;27.914;2023-03-31T13:04:59;100618.31;;;11.96;64.85
63204;BME280;49297;43.210;27.914;2023-03-31T13:07:45;100617.13;;;12.08;64.84
63204;BME280;49297;43.210;27.914;2023-03-31T13:15:40;100613.38;;;12.47;64.52
63204;BME280;49297;43.210;27.914;2023-03-31T13:18:17;100605.94;;;12.50;64.59
63204;BME280;49297;43.210;27.914;2023-03-31T13:20:45;100598.03;;;12.59;64.38
63204;BME280;49297;43.210;27.914;2023-03-31T13:23:22;100594.75;;;12.65;64.41
63204;BME280;49297;43.210;27.914;2023-03-31T13:25:56;100595.44;;;12.67;64.50
63204;BME280;49297;43.210;27.914;2023-03-31T13:30:49;100593.78;;;12.66;64.45
63204;BME280;49297;43.210;27.914;2023-03-31T13:35:45;100582.44;;;12.64;64.30
63204;BME280;49297;43.210;27.914;2023-03-31T13:53:46;100584.50;;;12.70;64.76
63204;BME280;49297;43.210;27.914;2023-03-31T13:56:41;100579.19;;;12.70;65.00
63204;BME280;49297;43.210;27.914;2023-03-31T14:07:00;100561.28;;;12.98;64.95
63204;BME280;49297;43.210;27.914;2023-03-31T14:09:33;100568.41;;;13.24;64.33
63204;BME280;49297;43.210;27.914;2023-03-31T14:12:17;100556.63;;;13.61;64.11
63204;BME280;49297;43.210;27.914;2023-03-31T14:14:43;100551.56;;;14.00;63.85
63204;BME280;49297;43.210;27.914;2023-03-31T14:17:10;100553.41;;;14.16;63.15
63204;BME280;49297;43.210;27.914;2023-03-31T14:22:16;100550.13;;;14.39;62.68
63204;BME280;49297;43.210;27.914;2023-03-31T14:32:39;100541.78;;;14.34;61.98
63204;BME280;49297;43.210;27.914;2023-03-31T14:37:53;100542.13;;;14.39;61.65
63204;BME280;49297;43.210;27.914;2023-03-31T14:40:19;100542.13;;;14.39;61.56
63204;BME280;49297;43.210;27.914;2023-03-31T14:42:46;100529.47;;;14.33;61.15
63204;BME280;49297;43.210;27.914;2023-03-31T14:45:17;100532.47;;;14.21;61.41
63204;BME280;49297;43.210;27.914;2023-03-31T14:47:55;100535.63;;;14.08;61.66
63204;BME280;49297;43.210;27.914;2023-03-31T14:50:26;100532.44;;;13.97;61.62
63204;BME280;49297;43.210;27.914;2023-03-31T14:52:52;100535.25;;;13.87;61.79
63204;BME280;49297;43.210;27.914;2023-03-31T14:55:21;100529.25;;;13.77;61.39
63204;BME280;49297;43.210;27.914;2023-03-31T14:57:49;100535.53;;;13.67;61.51
63204;BME280;49297;43.210;27.914;2023-03-31T15:00:32;100534.69;;;13.59;61.63
63204;BME280;49297;43.210;27.914;2023-03-31T15:03:00;100545.13;;;13.52;61.61
63204;BME280;49297;43.210;27.914;2023-03-31T15:05:30;100547.44;;;13.47;61.81
63204;BME280;49297;43.210;27.914;2023-03-31T15:07:57;100540.28;;;13.47;62.06
63204;BME280;49297;43.210;27.914;2023-03-31T15:10:24;100539.09;;;13.42;61.89
63204;BME280;49297;43.210;27.914;2023-03-31T15:12:54;100531.63;;;13.37;61.97
63204;BME280;49297;43.210;27.914;2023-03-31T15:15:21;100536.41;;;13.33;61.86
63204;BME280;49297;43.210;27.914;2023-03-31T15:17:47;100533.22;;;13.30;62.27
63204;BME280;49297;43.210;27.914;2023-03-31T15:22:58;100529.53;;;13.23;62.52
63204;BME280;49297;43.210;27.914;2023-03-31T15:25:25;100521.19;;;13.18;62.91
63204;BME280;49297;43.210;27.914;2023-03-31T15:27:55;100528.97;;;13.11;63.04
63204;BME280;49297;43.210;27.914;2023-03-31T15:30:23;100531.41;;;13.04;63.27
63204;BME280;49297;43.210;27.914;2023-03-31T15:32:52;100527.56;;;12.99;63.58
63204;BME280;49297;43.210;27.914;2023-03-31T15:35:29;100517.91;;;12.89;63.73
63204;BME280;49297;43.210;27.914;2023-03-31T15:38:03;100521.34;;;12.82;64.22